createdAt,value
2024-01-19T00:01:45.353Z,7.93
2024-01-19T00:04:12.112Z,7.93
2024-01-19T00:06:40.591Z,7.93
2024-01-19T00:09:08.551Z,7.91
2024-01-19T00:11:35.441Z,7.87
2024-01-19T00:14:02.236Z,7.83
2024-01-19T00:16:29.091Z,7.81
2024-01-19T00:18:56.165Z,7.80
2024-01-19T00:21:22.964Z,7.79
2024-01-19T00:23:51.246Z,7.77
2024-01-19T00:26:18.167Z,7.76
2024-01-19T00:28:46.765Z,7.76
2024-01-19T00:31:13.604Z,7.78
2024-01-19T00:33:40.472Z,7.80
2024-01-19T00:36:07.607Z,7.82
2024-01-19T00:38:34.543Z,7.85
2024-01-19T00:41:05.558Z,7.86
2024-01-19T00:43:32.900Z,7.86
2024-01-19T00:45:59.761Z,7.86
2024-01-19T00:48:26.713Z,7.86
2024-01-19T00:50:53.694Z,7.86
2024-01-19T00:53:20.655Z,7.86
2024-01-19T00:55:47.481Z,7.85
2024-01-19T00:58:15.569Z,7.86
2024-01-19T01:00:42.645Z,7.86
2024-01-19T01:03:09.861Z,7.85
2024-01-19T01:05:36.892Z,7.83
2024-01-19T01:08:03.984Z,7.81
2024-01-19T01:10:30.815Z,7.81
2024-01-19T01:12:58.840Z,7.82
2024-01-19T01:15:25.642Z,7.82
2024-01-19T01:17:52.525Z,7.84
2024-01-19T01:20:21.877Z,7.84
2024-01-19T01:22:48.930Z,7.82
2024-01-19T01:25:15.814Z,7.79
2024-01-19T01:27:42.783Z,7.75
2024-01-19T01:30:11.189Z,7.73
2024-01-19T01:32:38.121Z,7.71
2024-01-19T01:35:05.879Z,7.70
2024-01-19T01:37:32.726Z,7.72
2024-01-19T01:39:59.550Z,7.73
2024-01-19T01:42:26.375Z,7.77
2024-01-19T01:44:53.346Z,7.79
2024-01-19T01:47:20.323Z,7.80
2024-01-19T01:49:47.534Z,7.80
2024-01-19T01:52:14.437Z,7.81
2024-01-19T01:54:41.225Z,7.82
2024-01-19T01:57:08.592Z,7.83
2024-01-19T01:59:35.528Z,7.84
2024-01-19T02:02:02.389Z,7.83
2024-01-19T02:04:29.920Z,7.83
2024-01-19T02:06:57.107Z,7.84
2024-01-19T02:09:24.009Z,7.84
2024-01-19T02:11:51.194Z,7.85
2024-01-19T02:14:18.296Z,7.86
2024-01-19T02:16:45.244Z,7.87
2024-01-19T02:19:12.191Z,7.87
2024-01-19T02:21:39.080Z,7.86
2024-01-19T02:24:12.261Z,7.86
2024-01-19T02:26:39.937Z,7.86
2024-01-19T02:29:06.820Z,7.85
2024-01-19T02:31:33.822Z,7.84
2024-01-19T02:34:00.805Z,7.83
2024-01-19T02:36:27.699Z,7.82
2024-01-19T02:38:54.731Z,7.82
2024-01-19T02:41:21.838Z,7.81
2024-01-19T02:43:48.647Z,7.79
2024-01-19T02:46:16.715Z,7.77
2024-01-19T02:48:43.831Z,7.77
2024-01-19T02:51:10.771Z,7.77
2024-01-19T02:53:37.721Z,7.78
2024-01-19T02:56:05.722Z,7.78
2024-01-19T02:58:32.633Z,7.80
2024-01-19T03:01:00.921Z,7.78
2024-01-19T03:03:28.016Z,7.77
2024-01-19T03:05:54.972Z,7.74
2024-01-19T03:08:23.550Z,7.76
2024-01-19T03:10:50.584Z,7.76
2024-01-19T03:13:17.377Z,7.77
2024-01-19T03:15:44.370Z,7.77
2024-01-19T03:18:11.388Z,7.78
2024-01-19T03:20:38.352Z,7.78
2024-01-19T03:23:07.051Z,7.78
2024-01-19T03:25:34.668Z,7.77
2024-01-19T03:28:01.528Z,7.77
2024-01-19T03:30:28.493Z,7.75
2024-01-19T03:32:55.657Z,7.72
2024-01-19T03:35:22.661Z,7.66
2024-01-19T03:37:50.037Z,7.59
2024-01-19T03:40:17.133Z,7.53
2024-01-19T03:42:43.977Z,7.45
2024-01-19T03:45:11.098Z,7.39
2024-01-19T03:47:37.954Z,7.36
2024-01-19T03:50:07.301Z,7.31
2024-01-19T03:52:34.595Z,7.28
2024-01-19T03:55:02.083Z,7.24
2024-01-19T03:57:28.876Z,7.23
2024-01-19T03:59:58.183Z,7.25
2024-01-19T04:02:25.063Z,7.27
2024-01-19T04:04:51.903Z,7.30
2024-01-19T04:07:18.804Z,7.34
2024-01-19T04:09:45.977Z,7.38
2024-01-19T04:12:15.690Z,7.41
2024-01-19T04:14:43.689Z,7.39
2024-01-19T04:17:11.670Z,7.36
2024-01-19T04:19:39.642Z,7.31
2024-01-19T04:22:06.772Z,7.26
2024-01-19T04:24:33.702Z,7.23
2024-01-19T04:27:00.640Z,7.22
2024-01-19T04:29:27.676Z,7.24
2024-01-19T04:31:54.770Z,7.24
2024-01-19T04:34:21.573Z,7.23
2024-01-19T04:36:48.448Z,7.22
2024-01-19T04:39:15.232Z,7.20
2024-01-19T04:41:42.048Z,7.21
2024-01-19T04:44:08.965Z,7.23
2024-01-19T04:46:35.737Z,7.28
2024-01-19T04:49:03.783Z,7.32
2024-01-19T04:51:31.106Z,7.38
2024-01-19T04:53:59.961Z,7.44
2024-01-19T04:56:26.951Z,7.49
2024-01-19T04:58:53.879Z,7.53
2024-01-19T05:01:20.755Z,7.56
2024-01-19T05:03:47.522Z,7.59
2024-01-19T05:06:15.195Z,7.61
2024-01-19T05:08:45.344Z,7.64
2024-01-19T05:11:15.500Z,7.64
2024-01-19T05:13:43.180Z,7.59
2024-01-19T05:16:10.982Z,7.53
2024-01-19T05:18:38.278Z,7.50
2024-01-19T05:21:08.198Z,7.48
2024-01-19T05:23:35.157Z,7.38
2024-01-19T05:26:06.193Z,7.28
2024-01-19T05:28:35.190Z,7.21
2024-01-19T05:31:02.228Z,7.18
2024-01-19T05:33:30.525Z,7.14
2024-01-19T05:35:57.663Z,7.12
2024-01-19T05:38:24.696Z,7.10
2024-01-19T05:40:51.593Z,7.04
2024-01-19T05:43:18.600Z,6.99
2024-01-19T05:45:45.466Z,6.97
2024-01-19T05:48:12.505Z,6.97
2024-01-19T05:50:39.338Z,7.01
2024-01-19T05:53:06.219Z,7.04
2024-01-19T05:55:33.029Z,7.08
2024-01-19T05:57:59.819Z,7.09
2024-01-19T06:00:26.760Z,7.14
2024-01-19T06:02:53.601Z,7.19
2024-01-19T06:05:20.727Z,7.24
2024-01-19T06:07:47.673Z,7.30
2024-01-19T06:10:14.620Z,7.34
2024-01-19T06:12:41.485Z,7.39
2024-01-19T06:15:09.057Z,7.44
2024-01-19T06:17:38.621Z,7.49
2024-01-19T06:20:12.470Z,7.53
2024-01-19T06:22:40.103Z,7.56
2024-01-19T06:25:09.255Z,7.60
2024-01-19T06:27:36.005Z,7.63
2024-01-19T06:30:04.289Z,7.65
2024-01-19T06:32:32.374Z,7.62
2024-01-19T06:34:59.504Z,7.58
2024-01-19T06:37:26.464Z,7.49
2024-01-19T06:39:53.275Z,7.38
2024-01-19T06:42:20.532Z,7.29
2024-01-19T06:44:47.495Z,7.22
2024-01-19T06:47:14.344Z,7.19
2024-01-19T06:49:41.254Z,7.18
2024-01-19T06:52:08.282Z,7.19
2024-01-19T06:54:35.222Z,7.26
2024-01-19T06:57:02.780Z,7.36
2024-01-19T06:59:29.892Z,7.44
2024-01-19T07:01:56.905Z,7.50
2024-01-19T07:04:23.688Z,7.57
2024-01-19T07:06:50.927Z,7.64
2024-01-19T07:09:18.813Z,7.69
2024-01-19T07:11:45.672Z,7.76
2024-01-19T07:14:12.627Z,7.85
2024-01-19T07:16:44.920Z,7.97
2024-01-19T07:19:12.819Z,8.31
2024-01-19T07:21:41.048Z,8.58
2024-01-19T07:24:09.226Z,8.85
2024-01-19T07:26:36.340Z,9.13
2024-01-19T07:29:05.855Z,9.38
2024-01-19T07:31:32.706Z,9.62
2024-01-19T07:33:59.802Z,9.80
2024-01-19T07:36:27.661Z,9.97
2024-01-19T07:38:55.583Z,10.11
2024-01-19T07:41:23.025Z,10.20
2024-01-19T07:43:49.925Z,10.27
2024-01-19T07:46:17.022Z,10.33
2024-01-19T07:48:44.260Z,10.36
2024-01-19T07:51:11.215Z,10.35
2024-01-19T07:53:38.133Z,10.31
2024-01-19T07:56:05.722Z,10.25
2024-01-19T07:58:32.577Z,10.23
2024-01-19T08:00:59.459Z,10.23
2024-01-19T08:03:26.695Z,10.22
2024-01-19T08:05:53.511Z,10.18
2024-01-19T08:08:21.163Z,10.12
2024-01-19T08:10:48.082Z,9.99
2024-01-19T08:13:15.343Z,9.84
2024-01-19T08:15:42.226Z,9.68
2024-01-19T08:18:09.341Z,9.53
2024-01-19T08:20:36.267Z,9.33
2024-01-19T08:23:03.984Z,9.13
2024-01-19T08:25:30.882Z,8.89
2024-01-19T08:27:57.814Z,8.71
2024-01-19T08:30:24.711Z,8.53
2024-01-19T08:32:51.583Z,8.42
2024-01-19T08:35:18.546Z,8.36
2024-01-19T08:37:45.418Z,8.33
2024-01-19T08:40:13.287Z,8.30
2024-01-19T08:42:40.633Z,8.27
2024-01-19T08:45:08.644Z,8.24
2024-01-19T08:47:37.229Z,8.19
2024-01-19T08:50:05.194Z,8.15
2024-01-19T08:52:32.151Z,8.11
2024-01-19T08:54:59.430Z,8.09
2024-01-19T08:57:26.746Z,8.06
2024-01-19T08:59:53.817Z,8.00
2024-01-19T09:02:21.536Z,8.03
2024-01-19T09:04:49.932Z,8.02
2024-01-19T09:07:18.617Z,8.06
2024-01-19T09:09:45.606Z,8.08
2024-01-19T09:12:12.541Z,8.06
2024-01-19T09:14:39.344Z,8.06
2024-01-19T09:17:06.168Z,8.06
2024-01-19T09:19:33.282Z,8.07
2024-01-19T09:22:00.830Z,8.12
2024-01-19T09:24:28.477Z,8.17
2024-01-19T09:26:55.474Z,8.17
2024-01-19T09:29:22.304Z,8.18
2024-01-19T09:31:49.172Z,8.16
2024-01-19T09:34:16.569Z,8.17
2024-01-19T09:36:43.606Z,8.18
2024-01-19T09:39:10.777Z,8.21
2024-01-19T09:42:10.718Z,8.25
2024-01-19T09:44:38.545Z,8.31
2024-01-19T09:47:21.797Z,8.35
2024-01-19T09:50:05.877Z,8.38
2024-01-19T09:52:49.308Z,8.40
2024-01-19T09:55:16.895Z,8.41
2024-01-19T09:57:50.141Z,8.42
2024-01-19T10:00:19.519Z,8.45
2024-01-19T10:02:48.478Z,8.47
2024-01-19T10:05:17.379Z,8.48
2024-01-19T10:07:56.548Z,8.50
2024-01-19T10:10:23.679Z,8.53
2024-01-19T10:12:50.497Z,8.56
2024-01-19T10:15:18.199Z,8.58
2024-01-19T10:17:46.754Z,8.62
2024-01-19T10:20:16.619Z,8.65
2024-01-19T10:22:44.175Z,8.69
2024-01-19T10:25:14.643Z,8.76
2024-01-19T10:27:42.683Z,8.83
2024-01-19T10:30:11.556Z,8.88
2024-01-19T10:32:40.456Z,8.93
2024-01-19T10:35:10.325Z,8.99
2024-01-19T10:37:37.710Z,9.02
2024-01-19T10:40:21.939Z,9.04
2024-01-19T10:42:55.361Z,9.05
2024-01-19T10:45:24.097Z,9.05
2024-01-19T10:47:53.247Z,9.04
2024-01-19T10:50:20.832Z,8.99
2024-01-19T10:52:54.552Z,8.94
2024-01-19T10:55:26.573Z,8.88
2024-01-19T10:57:56.681Z,8.86
2024-01-19T11:00:26.494Z,8.88
2024-01-19T11:02:56.219Z,8.84
2024-01-19T11:05:24.628Z,8.80
2024-01-19T11:07:56.219Z,8.76
2024-01-19T11:10:23.780Z,8.70
2024-01-19T11:13:01.683Z,8.65
2024-01-19T11:15:31.355Z,8.58
2024-01-19T11:18:03.567Z,8.53
2024-01-19T11:20:32.883Z,8.48
2024-01-19T11:23:01.377Z,8.44
2024-01-19T11:25:52.628Z,8.41
2024-01-19T11:28:37.587Z,8.40
2024-01-19T11:31:23.660Z,8.41
2024-01-19T11:33:53.969Z,8.43
2024-01-19T11:36:39.514Z,8.47
2024-01-19T11:39:07.321Z,8.49
2024-01-19T11:41:37.491Z,8.50
2024-01-19T11:44:06.520Z,8.50
2024-01-19T11:46:45.516Z,8.52
2024-01-19T11:49:30.960Z,8.52
2024-01-19T11:52:00.335Z,8.52
2024-01-19T11:54:30.379Z,8.50
2024-01-19T11:57:19.801Z,8.49
2024-01-19T11:59:47.392Z,8.50
2024-01-19T12:02:28.805Z,8.52
2024-01-19T12:04:57.804Z,8.55
2024-01-19T12:07:24.690Z,8.57
2024-01-19T12:10:11.324Z,8.58
2024-01-19T12:12:39.341Z,8.59
2024-01-19T12:15:09.092Z,8.61
2024-01-19T12:17:41.957Z,8.62
2024-01-19T12:20:20.254Z,8.62
2024-01-19T12:22:57.080Z,8.62
2024-01-19T12:25:26.898Z,8.61
2024-01-19T12:28:17.212Z,8.62
2024-01-19T12:30:44.058Z,8.63
2024-01-19T12:33:16.324Z,8.61
2024-01-19T12:35:43.781Z,8.56
2024-01-19T12:38:11.044Z,8.51
2024-01-19T12:40:40.131Z,8.47
2024-01-19T12:43:07.774Z,8.43
2024-01-19T12:45:35.641Z,8.40
2024-01-19T12:48:06.433Z,8.41
2024-01-19T12:50:36.873Z,8.39
2024-01-19T12:53:04.007Z,8.35
2024-01-19T12:55:32.513Z,8.35
2024-01-19T12:58:00.241Z,8.34
2024-01-19T13:00:28.982Z,8.32
2024-01-19T13:03:00.088Z,8.28
2024-01-19T13:05:29.322Z,8.24
2024-01-19T13:08:03.136Z,8.15
2024-01-19T13:10:31.186Z,8.08
2024-01-19T13:13:06.667Z,8.06
2024-01-19T13:15:33.816Z,8.03
2024-01-19T13:18:11.501Z,8.01
2024-01-19T13:20:39.594Z,7.96
2024-01-19T13:23:10.742Z,7.94
2024-01-19T13:25:39.129Z,7.93
2024-01-19T13:28:07.413Z,7.95
2024-01-19T13:30:34.522Z,7.96
2024-01-19T13:33:04.339Z,7.98
2024-01-19T13:35:31.735Z,7.95
2024-01-19T13:37:58.702Z,7.88
2024-01-19T13:40:25.749Z,7.80
2024-01-19T13:42:53.084Z,7.75
2024-01-19T13:45:20.478Z,7.72
2024-01-19T13:47:47.363Z,7.67
2024-01-19T13:50:14.309Z,7.61
2024-01-19T13:52:41.365Z,7.56
2024-01-19T13:55:10.122Z,7.52
2024-01-19T13:57:37.040Z,7.45
2024-01-19T14:00:05.024Z,7.41
2024-01-19T14:02:35.243Z,7.37
2024-01-19T14:05:06.037Z,7.36
2024-01-19T14:07:33.353Z,7.32
2024-01-19T14:10:00.355Z,7.29
2024-01-19T14:12:28.216Z,7.29
2024-01-19T14:14:56.744Z,7.28
2024-01-19T14:17:25.181Z,7.26
2024-01-19T14:19:52.429Z,7.21
2024-01-19T14:22:22.499Z,7.16
2024-01-19T14:24:49.851Z,7.11
2024-01-19T14:27:16.748Z,7.08
2024-01-19T14:29:44.960Z,7.06
2024-01-19T14:32:13.670Z,7.02
2024-01-19T14:34:46.480Z,7.04
2024-01-19T14:37:17.463Z,7.05
2024-01-19T14:39:44.335Z,7.06
2024-01-19T14:42:11.349Z,7.04
2024-01-19T14:44:38.275Z,7.03
2024-01-19T14:47:05.954Z,7.01
2024-01-19T14:49:34.403Z,7.01
2024-01-19T14:52:02.598Z,6.99
2024-01-19T14:54:34.846Z,6.96
2024-01-19T14:57:02.449Z,6.92
2024-01-19T14:59:29.304Z,6.87
2024-01-19T15:01:57.904Z,6.81
2024-01-19T15:04:25.789Z,6.77
2024-01-19T15:06:53.003Z,6.75
2024-01-19T15:09:20.017Z,6.74
2024-01-19T15:11:47.093Z,6.75
2024-01-19T15:14:14.139Z,6.77
2024-01-19T15:16:41.886Z,6.75
2024-01-19T15:19:09.949Z,6.76
2024-01-19T15:21:36.841Z,6.74
2024-01-19T15:24:07.846Z,6.71
2024-01-19T15:26:35.100Z,6.68
2024-01-19T15:29:02.084Z,6.63
2024-01-19T15:31:29.025Z,6.60
2024-01-19T15:33:57.805Z,6.57
2024-01-19T15:36:24.911Z,6.54
2024-01-19T15:38:51.711Z,6.49
2024-01-19T15:41:23.855Z,6.48
2024-01-19T15:43:51.082Z,6.45
2024-01-19T15:46:25.091Z,6.41
2024-01-19T15:49:02.996Z,6.39
2024-01-19T15:51:34.277Z,6.36
2024-01-19T15:54:02.038Z,6.34
2024-01-19T15:56:36.318Z,6.33
2024-01-19T15:59:06.891Z,6.33
2024-01-19T16:01:33.986Z,6.33
2024-01-19T16:04:02.699Z,6.32
2024-01-19T16:06:31.179Z,6.32
2024-01-19T16:08:58.434Z,6.27
2024-01-19T16:11:25.563Z,6.25
2024-01-19T16:13:52.431Z,6.22
2024-01-19T16:16:19.317Z,6.21
2024-01-19T16:18:46.586Z,6.20
2024-01-19T16:21:18.969Z,6.18
2024-01-19T16:23:47.077Z,6.19
2024-01-19T16:26:14.668Z,6.21
2024-01-19T16:28:41.767Z,6.18
2024-01-19T16:31:09.857Z,6.13
2024-01-19T16:33:36.652Z,6.12
2024-01-19T16:36:07.722Z,6.11
2024-01-19T16:38:34.914Z,6.12
2024-01-19T16:41:01.910Z,6.19
2024-01-19T16:43:28.867Z,6.21
2024-01-19T16:45:56.115Z,6.18
2024-01-19T16:48:24.059Z,6.16
2024-01-19T16:50:51.706Z,6.14
2024-01-19T16:53:18.608Z,6.12
2024-01-19T16:55:47.226Z,6.07
2024-01-19T16:58:15.465Z,6.03
2024-01-19T17:00:42.977Z,6.01
2024-01-19T17:03:13.641Z,5.99
2024-01-19T17:05:40.553Z,5.98
2024-01-19T17:08:07.634Z,5.97
2024-01-19T17:10:37.740Z,5.97
2024-01-19T17:13:04.894Z,5.95
2024-01-19T17:15:32.891Z,5.94
2024-01-19T17:17:59.984Z,5.93
2024-01-19T17:20:28.520Z,5.90
2024-01-19T17:22:55.602Z,5.88
2024-01-19T17:25:24.130Z,5.87
2024-01-19T17:27:51.626Z,5.89
2024-01-19T17:30:22.727Z,5.88
2024-01-19T17:32:50.635Z,5.85
2024-01-19T17:35:17.812Z,5.86
2024-01-19T17:37:45.573Z,5.89
2024-01-19T17:40:12.529Z,5.90
2024-01-19T17:42:39.461Z,5.95
2024-01-19T17:45:16.246Z,5.97
2024-01-19T17:47:53.633Z,5.99
2024-01-19T17:50:25.340Z,5.98
2024-01-19T17:52:53.176Z,5.96
2024-01-19T17:55:20.519Z,5.94
2024-01-19T17:57:50.466Z,5.94
2024-01-19T18:00:19.197Z,5.93
2024-01-19T18:02:46.201Z,5.92
2024-01-19T18:05:16.182Z,5.90
2024-01-19T18:07:45.111Z,5.89
2024-01-19T18:10:12.211Z,5.88
2024-01-19T18:12:41.032Z,5.85
2024-01-19T18:15:09.830Z,5.84
2024-01-19T18:17:37.283Z,5.84
2024-01-19T18:20:07.860Z,5.84
2024-01-19T18:22:34.899Z,5.83
2024-01-19T18:25:02.066Z,5.81
2024-01-19T18:27:29.636Z,5.80
2024-01-19T18:29:56.716Z,5.78
2024-01-19T18:32:27.919Z,5.77
2024-01-19T18:34:55.103Z,5.76
2024-01-19T18:37:22.002Z,5.74
2024-01-19T18:39:50.574Z,5.72
2024-01-19T18:42:17.390Z,5.72
2024-01-19T18:44:45.126Z,5.74
2024-01-19T18:47:15.050Z,5.74
2024-01-19T18:49:42.045Z,5.73
2024-01-19T18:52:09.483Z,5.73
2024-01-19T18:54:36.503Z,5.71
2024-01-19T18:57:03.567Z,5.71
2024-01-19T18:59:30.532Z,5.69
2024-01-19T19:01:58.112Z,5.65
2024-01-19T19:04:25.091Z,5.63
2024-01-19T19:06:52.171Z,5.63
2024-01-19T19:09:21.019Z,5.62
2024-01-19T19:11:47.839Z,5.62
2024-01-19T19:14:16.239Z,5.60
2024-01-19T19:16:47.942Z,5.56
2024-01-19T19:19:16.999Z,5.54
2024-01-19T19:21:44.186Z,5.53
2024-01-19T19:24:11.458Z,5.50
2024-01-19T19:26:39.389Z,5.47
2024-01-19T19:29:07.581Z,5.46
2024-01-19T19:31:34.637Z,5.45
2024-01-19T19:34:02.001Z,5.44
2024-01-19T19:36:33.220Z,5.42
2024-01-19T19:39:05.044Z,5.39
2024-01-19T19:41:33.177Z,5.38
2024-01-19T19:44:00.065Z,5.35
2024-01-19T19:46:26.963Z,5.32
2024-01-19T19:48:56.846Z,5.30
2024-01-19T19:51:30.688Z,5.29
2024-01-19T19:53:58.122Z,5.27
2024-01-19T19:56:26.298Z,5.26
2024-01-19T19:58:53.350Z,5.27
2024-01-19T20:01:20.308Z,5.25
2024-01-19T20:03:47.186Z,5.23
2024-01-19T20:06:14.003Z,5.22
2024-01-19T20:08:41.076Z,5.20
2024-01-19T20:11:08.093Z,5.17
2024-01-19T20:13:35.416Z,5.17
2024-01-19T20:16:03.576Z,5.14
2024-01-19T20:18:31.220Z,5.15
2024-01-19T20:21:00.014Z,5.15
2024-01-19T20:23:27.203Z,5.14
2024-01-19T20:25:54.058Z,5.13
2024-01-19T20:28:22.256Z,5.11
2024-01-19T20:30:49.692Z,5.09
2024-01-19T20:33:17.516Z,5.08
2024-01-19T20:35:44.737Z,5.06
2024-01-19T20:38:11.956Z,5.04
2024-01-19T20:40:39.088Z,4.99
2024-01-19T20:43:07.475Z,4.96
2024-01-19T20:45:34.653Z,4.93
2024-01-19T20:48:01.611Z,4.91
2024-01-19T20:50:28.635Z,4.87
2024-01-19T20:52:55.477Z,4.83
2024-01-19T20:55:22.641Z,4.80
2024-01-19T20:57:49.462Z,4.75
2024-01-19T21:00:17.299Z,4.71
2024-01-19T21:02:44.616Z,4.63
2024-01-19T21:05:12.582Z,4.57
2024-01-19T21:07:39.777Z,4.52
2024-01-19T21:10:08.175Z,4.48
2024-01-19T21:12:35.538Z,4.41
2024-01-19T21:15:07.906Z,4.37
2024-01-19T21:17:34.715Z,4.34
2024-01-19T21:20:01.775Z,4.32
2024-01-19T21:22:28.817Z,4.27
2024-01-19T21:24:56.237Z,4.22
2024-01-19T21:27:23.034Z,4.19
2024-01-19T21:29:49.815Z,4.16
2024-01-19T21:32:16.960Z,4.14
2024-01-19T21:34:43.969Z,4.12
2024-01-19T21:37:11.225Z,4.10
2024-01-19T21:39:39.062Z,4.06
2024-01-19T21:42:06.794Z,4.04
2024-01-19T21:44:35.209Z,4.02
2024-01-19T21:47:05.198Z,3.99
2024-01-19T21:49:32.635Z,3.96
2024-01-19T21:51:59.522Z,3.94
2024-01-19T21:54:27.450Z,3.91
2024-01-19T21:56:54.675Z,3.87
2024-01-19T21:59:21.801Z,3.84
2024-01-19T22:01:49.677Z,3.81
2024-01-19T22:04:18.189Z,3.79
2024-01-19T22:06:45.337Z,3.76
2024-01-19T22:09:13.104Z,3.71
2024-01-19T22:11:47.118Z,3.68
2024-01-19T22:14:22.326Z,3.64
2024-01-19T22:16:49.641Z,3.59
2024-01-19T22:19:16.471Z,3.56
2024-01-19T22:21:43.579Z,3.53
2024-01-19T22:24:12.456Z,3.50
2024-01-19T22:26:40.079Z,3.47
2024-01-19T22:29:07.163Z,3.46
2024-01-19T22:31:34.717Z,3.45
2024-01-19T22:34:02.004Z,3.45
2024-01-19T22:36:30.889Z,3.42
2024-01-19T22:38:58.657Z,3.38
2024-01-19T22:41:26.865Z,3.32
2024-01-19T22:43:54.159Z,3.29
2024-01-19T22:46:21.250Z,3.23
2024-01-19T22:48:49.125Z,3.17
2024-01-19T22:51:16.174Z,3.12
2024-01-19T22:53:44.085Z,3.06
2024-01-19T22:56:11.535Z,3.02
2024-01-19T22:58:39.406Z,2.99
2024-01-19T23:01:09.931Z,2.94
2024-01-19T23:03:37.038Z,2.87
2024-01-19T23:06:04.981Z,2.82
2024-01-19T23:08:31.849Z,2.79
2024-01-19T23:10:58.846Z,2.78
2024-01-19T23:13:25.730Z,2.75
2024-01-19T23:15:52.534Z,2.73
2024-01-19T23:18:20.253Z,2.71
2024-01-19T23:20:48.153Z,2.68
2024-01-19T23:23:15.485Z,2.65
2024-01-19T23:25:42.541Z,2.65
2024-01-19T23:28:10.745Z,2.64
2024-01-19T23:30:38.282Z,2.63
2024-01-19T23:33:05.628Z,2.62
2024-01-19T23:35:33.706Z,2.58
2024-01-19T23:38:02.241Z,2.51
2024-01-19T23:40:30.221Z,2.48
2024-01-19T23:42:57.354Z,2.45
2024-01-19T23:45:27.420Z,2.42
2024-01-19T23:47:55.407Z,2.38
2024-01-19T23:50:23.331Z,2.36
2024-01-19T23:52:51.168Z,2.32
2024-01-19T23:55:19.461Z,2.28
2024-01-19T23:57:46.721Z,2.23
